Thursday, January 17, 2019, 7:22 PM CST
Back to Local

KMEM, Memphis International Airport

Location: Memphis, TN, United States Lat: 35.033
Local Time: 7:22 PM CST ( 1:22 GMT) Lon: -89.983
Time Zone: US/Central Elev: 334 ft

Show me the last for .
Show Decoded

2019-01-17 18:54 METAR KMEM 180054Z 00000KT 2SM -DZ BR OVC004 12/12 A3008 RMK AO2 DZB52 SLP184
                 P0000 T01170117 =
2019-01-17 18:45 METAR KMEM 180045Z 00000KT 2 1/2SM BR OVC006 12/12 A3007 RMK AO2 CIG 003V009
                 T01170117 =
2019-01-17 17:54 METAR KMEM 172354Z 00000KT 6SM BR OVC009 12/11 A3005 RMK AO2 CIG 006V010 SLP177
                 T01170111 10117 20111 51008 =
2019-01-17 16:54 METAR KMEM 172254Z 23005KT 6SM BR OVC006 12/11 A3004 RMK AO2 SLP174 T01170111 =
2019-01-17 15:54 METAR KMEM 172154Z 23006KT 5SM BR OVC006 12/11 A3004 RMK AO2 SLP172 T01170111 =
2019-01-17 14:54 METAR KMEM 172054Z 25006KT 6SM BR OVC007 12/11 A3003 RMK AO2 SLP169 T01170111
                 55005 =
2019-01-17 13:54 METAR KMEM 171954Z 24008KT 8SM OVC008 12/11 A3002 RMK AO2 SLP165 T01170106 =
2019-01-17 13:31 METAR KMEM 171931Z 23008KT 6SM BR OVC008 12/11 A3002 RMK AO2 T01170106 =
2019-01-17 12:54 METAR KMEM 171854Z VRB05KT 5SM BR OVC007 12/11 A3003 RMK AO2 SLP170 T01170106 =
2019-01-17 11:54 METAR KMEM 171754Z 21011G22KT 4SM BR OVC007 11/10 A3005 RMK AO2 SLP174 60005
                 T01110100 10111 20089 58013 =
2019-01-17 10:58 METAR KMEM 171658Z 23011G17KT 3SM BR OVC007 10/09 A3009 RMK AO2 T01000094 =
2019-01-17 10:54 METAR KMEM 171654Z 22009KT 5SM BR OVC007 10/09 A3009 RMK AO2 RAE13 SLP190 P0001
                 T01000094 =
2019-01-17 09:54 METAR KMEM 171554Z COR 21007G16KT 4SM -RA BR OVC007 09/09 A3009 RMK AO2 SLP189
                 P0001 T00940089 =
2019-01-17 09:36 METAR KMEM 171536Z 22010G20KT 3SM BR OVC008CB 09/09 A3009 RMK AO2 VCSH CB SW MOV
                 E P0001 T00940089 =
2019-01-17 08:58 METAR KMEM 171458Z 21010G17KT 2SM -RA BR BKN008 OVC011 09/09 A3009 RMK AO2 SFC
                 VIS 4 LTG DSNT NE CIG 004V009 P0000 T00940089 =
2019-01-17 08:54 METAR KMEM 171454Z 22008KT 160V240 1 1/2SM -RA BR OVC008 09/09 A3008 RMK AO2 SFC
                 VIS 3 CIG 004V012 SLP187 P0003 60003 T00940089 53002 =
2019-01-17 08:03 METAR KMEM 171403Z 21009KT 1 1/2SM -RA BR OVC006 09/09 A3008 RMK AO2 SFC VIS 4
                 P0000 T00940089 =
2019-01-17 07:54 METAR KMEM 171354Z 20013KT 180V240 6SM -RA BR OVC006 09/09 A3008 RMK AO2
                 RAB19E38B54 CIG 005V010 SLP185 P0000 T00940089 =
2019-01-17 06:54 METAR KMEM 171254Z 20009KT 6SM BR OVC006 09/08 A3008 RMK AO2 RAE06 SLP186 P0000
                 T00890083 =
2019-01-17 05:54 METAR KMEM 171154Z 20010KT 3SM -RA BR OVC006 09/08 A3008 RMK AO2 SLP185 P0002
                 60030 70030 T00890083 10094 20083 58002 =
2019-01-17 05:35 METAR KMEM 171135Z 20010KT 4SM -RA BR OVC008 09/08 A3008 RMK AO2 CIG 005V011
                 P0002 T00890083 =
2019-01-17 04:54 METAR KMEM 171054Z 21009KT 2SM -RA BR BKN007 OVC012 09/08 A3009 RMK AO2 CIG
                 005V010 SLP187 P0020 T00890083 =
2019-01-17 04:46 METAR KMEM 171046Z 22008KT 2SM -RA BR BKN007 OVC011 08/08 A3009 RMK AO2 CIG
                 005V009 P0020 T00830083 =
2019-01-17 04:26 METAR KMEM 171026Z 23007G17KT 3SM -RA BR OVC009 09/08 A3009 RMK AO2 P0015
                 T00890083 =
2019-01-17 04:15 METAR KMEM 171015Z 21008KT 2SM -RA BR BKN009 OVC014 09/08 A3009 RMK AO2 P0015
                 T00890083 =
2019-01-17 04:14 METAR KMEM 171014Z 21008KT 2SM RA BR BKN009 OVC014 09/08 A3009 RMK AO2 P0015
                 T00890083 =
2019-01-17 04:08 METAR KMEM 171008Z 21007KT 1 1/4SM RA BR BKN006 OVC012 09/08 A3009 RMK AO2 P0014
                 T00890083 =
2019-01-17 04:04 METAR KMEM 171004Z 21010G16KT 1 1/4SM R36L/6000VP6000FT +RA BR SCT006 OVC012
                 09/08 A3009 RMK AO2 P0012 T00890083 =
2019-01-17 04:01 METAR KMEM 171001Z 21011G16KT 2SM R36L/6000VP6000FT +RA BR SCT006 OVC014 08/08
                 A3009 RMK AO2 P0011 T00830083 =
2019-01-17 03:54 METAR KMEM 170954Z 21010KT 2SM +RA BR OVC014 08/08 A3008 RMK AO2 SLP187 P0004
                 T00830083 =
2019-01-17 03:51 METAR KMEM 170951Z 21009G18KT 2SM -RA BR FEW009 OVC014 09/08 A3008 RMK AO2 P0003
                 =
2019-01-17 03:44 METAR KMEM 170944Z 20013KT 2SM -RA BR BKN012 OVC017 09/08 A3008 RMK AO2 P0002
                 T00890083 =
2019-01-17 02:54 METAR KMEM 170854Z 18008KT 5SM -RA BR FEW008 OVC019 08/08 A3010 RMK AO2 SLP193
                 P0002 60004 T00830078 58024 =
2019-01-17 02:46 METAR KMEM 170846Z 18008KT 4SM -RA BR SCT008 SCT013 OVC018 08/08 A3011 RMK AO2
                 P0002 T00830078 =
2019-01-17 02:42 METAR KMEM 170842Z 18009KT 4SM -RA BR SCT009 BKN013 OVC018 08/08 A3011 RMK AO2
                 P0002 T00830078 =
2019-01-17 01:54 METAR KMEM 170754Z 19008KT 3SM -RA BR OVC008 08/08 A3013 RMK AO2 RAB07 CIG
                 006V012 SLP204 P0002 T00830078 =
2019-01-17 01:46 METAR KMEM 170746Z 19007KT 3SM -RA BR BKN008 OVC011 08/08 A3013 RMK AO2 RAB07
                 CIG 006V010 P0002 T00830078 =
2019-01-17 01:24 METAR KMEM 170724Z 19009KT 3SM -RA BR OVC013 08/08 A3014 RMK AO2 RAB07 P0000
                 T00830078 =
2019-01-17 00:54 METAR KMEM 170654Z 19012G19KT 7SM BKN017 OVC024 09/06 A3015 RMK AO2 SLP208
                 T00940061 =
2019-01-17 00:29 METAR KMEM 170629Z 20017G24KT 8SM SCT023 OVC028 09/06 A3015 RMK AO2 T00940056 =
2019-01-16 23:54 METAR KMEM 170554Z 19010KT 10SM FEW028 OVC032 09/05 A3017 RMK AO2 SLP217
                 T00940050 10100 20089 401221006 58003 =
2019-01-16 22:54 METAR KMEM 170454Z 20009KT 10SM OVC030 09/04 A3020 RMK AO2 SLP225 T00940044 =
2019-01-16 22:14 METAR KMEM 170414Z 19006KT 10SM OVC030 09/04 A3019 RMK AO2 T00940044 =
2019-01-16 21:54 METAR KMEM 170354Z 17007KT 10SM OVC029 09/04 A3019 RMK AO2 SLP222 T00940044 =
2019-01-16 21:43 METAR KMEM 170343Z 19006KT 10SM OVC029 09/04 A3019 RMK AO2 T00940044 =
2019-01-16 20:54 METAR KMEM 170254Z 15006KT 10SM OVC033 09/04 A3018 RMK AO2 SLP221 T00940044
                 58012 =
2019-01-16 19:54 METAR KMEM 170154Z 17006KT 10SM OVC037 09/04 A3020 RMK AO2 SLP227 T00890044 =
2019-01-16 19:31 METAR KMEM 170131Z 18007KT 10SM OVC039 09/04 A3020 RMK AO2 T00890044 =
2019-01-16 18:54 METAR KMEM 170054Z 19006KT 10SM OVC042 09/04 A3021 RMK AO2 SLP230 T00940044 =
2019-01-16 17:54 METAR KMEM 162354Z 21007KT 10SM OVC044 09/04 A3022 RMK AO2 SLP233 T00890044
                 10122 20089 53001 =
2019-01-16 16:54 METAR KMEM 162254Z 25008KT 10SM OVC044 09/04 A3020 RMK AO2 SLP229 T00940044 =
2019-01-16 15:54 METAR KMEM 162154Z 22007KT 10SM OVC043 11/04 A3020 RMK AO2 SLP229 T01110044 =
2019-01-16 14:54 METAR KMEM 162054Z 21006KT 10SM OVC042 12/04 A3022 RMK AO2 SLP233 T01170044
                 56025 =
2019-01-16 13:54 METAR KMEM 161954Z 00000KT 10SM OVC043 11/04 A3022 RMK AO2 SLP235 T01110044 =
2019-01-16 12:54 METAR KMEM 161854Z 00000KT 10SM OVC043 11/04 A3025 RMK AO2 SLP246 T01060039 =
2019-01-16 11:54 METAR KMEM 161754Z VRB03KT 10SM BKN041 BKN250 09/04 A3029 RMK AO2 SLP257
                 T00940039 10100 21006 58006 =
2019-01-16 11:28 METAR KMEM 161728Z 26005KT 10SM BKN041 BKN250 09/03 A3030 RMK AO2 T00890033 =
2019-01-16 10:54 METAR KMEM 161654Z 19006KT 10SM BKN039 BKN250 08/04 A3032 RMK AO2 SLP268
                 T00780039 =
2019-01-16 09:54 METAR KMEM 161554Z 20005KT 10SM FEW040 SCT250 06/03 A3032 RMK AO2 SLP268
                 T00610033 =
2019-01-16 08:54 METAR KMEM 161454Z 21005KT 10SM FEW015 FEW250 04/02 A3031 RMK AO2 SLP264
                 T00390022 51014 =
2019-01-16 08:28 METAR KMEM 161428Z 21004KT 10SM FEW015 FEW250 03/02 A3030 RMK AO2 T00280017 =
2019-01-16 07:54 METAR KMEM 161354Z 20003KT 5SM BR FEW015 FEW250 01/01 A3030 RMK AO2 SLP261
                 T00110006 =
2019-01-16 06:54 METAR KMEM 161254Z 19005KT 10SM CLR 00/M01 A3028 RMK AO2 SLP257 T00001006 =
2019-01-16 05:54 METAR KMEM 161154Z 19006KT 8SM CLR 00/M01 A3027 RMK AO2 SLP251 T00001006 10011
                 21006 55004 =
2019-01-16 04:54 METAR KMEM 161054Z 19004KT 10SM CLR 00/M01 A3026 RMK AO2 SLP248 T00001006 =
2019-01-16 03:54 METAR KMEM 160954Z 22003KT 10SM CLR 00/M01 A3027 RMK AO2 SLP253 T00001006 =
2019-01-16 02:54 METAR KMEM 160854Z 22004KT 10SM CLR 00/M01 A3028 RMK AO2 SLP254 T00001006 58003
                 =
2019-01-16 01:54 METAR KMEM 160754Z 19004KT 10SM CLR 00/M01 A3028 RMK AO2 SLP256 T00001006 =
2019-01-16 00:54 METAR KMEM 160654Z 20005KT 10SM CLR 00/M01 A3028 RMK AO2 SLP256 T00001006 =
2019-01-15 23:54 METAR KMEM 160554Z 20004KT 10SM CLR 00/M01 A3029 RMK AO2 SLP257 T00001006 10039
                 20000 400720000 50005 =
2019-01-15 22:54 METAR KMEM 160454Z 20003KT 10SM CLR 01/00 A3029 RMK AO2 SLP259 T00110000 =
2019-01-15 21:54 METAR KMEM 160354Z 21003KT 10SM CLR 01/00 A3028 RMK AO2 SLP256 T00110000 =
2019-01-15 20:54 METAR KMEM 160254Z 00000KT 10SM FEW250 02/01 A3027 RMK AO2 SLP252 T00220006
                 58005 =
2019-01-15 19:54 METAR KMEM 160154Z 00000KT 10SM FEW250 03/01 A3028 RMK AO2 SLP255 T00280006 =
2019-01-15 18:54 METAR KMEM 160054Z 00000KT 10SM FEW250 04/01 A3028 RMK AO2 SLP255 T00390006 =
2019-01-15 17:54 METAR KMEM 152354Z 22003KT 10SM FEW024 FEW250 04/00 A3029 RMK AO2 SLP257
                 T00390000 10072 20033 56006 =
2019-01-15 17:01 METAR KMEM 152301Z 22003KT 10SM FEW024 SCT250 05/01 A3029 RMK AO2 T00500006 =
2019-01-15 16:54 METAR KMEM 152254Z 23003KT 10SM BKN024 BKN250 05/01 A3029 RMK AO2 SLP257
                 T00500006 =
2019-01-15 16:32 METAR KMEM 152232Z 23006KT 10SM BKN024 BKN250 06/01 A3029 RMK AO2 T00560006 =
2019-01-15 15:54 METAR KMEM 152154Z 23005KT 10SM SCT024 BKN040 BKN250 06/01 A3030 RMK AO2 SLP261
                 T00560006 =
2019-01-15 15:36 METAR KMEM 152136Z 22006KT 10SM SCT024 BKN250 06/01 A3030 RMK AO2 T00610011 =
2019-01-15 14:54 METAR KMEM 152054Z 22005KT 10SM BKN024 06/01 A3031 RMK AO2 SLP263 T00610011
                 56018 =
2019-01-15 13:54 METAR KMEM 151954Z VRB04KT 10SM BKN024 07/01 A3031 RMK AO2 SLP264 T00670011 =
2019-01-15 12:54 METAR KMEM 151854Z 22007KT 10SM OVC024 06/01 A3033 RMK AO2 SLP273 T00610006 =
2019-01-15 11:54 METAR KMEM 151754Z 25007KT 10SM OVC024 06/01 A3036 RMK AO2 SLP281 T00610006
                 10061 20033 58005 =
2019-01-15 10:54 METAR KMEM 151654Z 24005KT 10SM BKN023 06/01 A3038 RMK AO2 SLP289 T00560006 =
2019-01-15 09:54 METAR KMEM 151554Z 21006KT 10SM BKN023 05/00 A3038 RMK AO2 SLP289 T00500000 =
2019-01-15 08:54 METAR KMEM 151454Z 22006KT 10SM OVC023 04/00 A3037 RMK AO2 SLP286 T00440000
                 53004 =
2019-01-15 07:54 METAR KMEM 151354Z 20004KT 10SM OVC023 04/M01 A3035 RMK AO2 SLP280 T00391006 =
2019-01-15 06:54 METAR KMEM 151254Z 00000KT 10SM OVC023 04/M01 A3036 RMK AO2 SLP281 T00391006 =
2019-01-15 05:54 METAR KMEM 151154Z 23003KT 10SM OVC023 03/00 A3036 RMK AO2 SLP282 T00330000
                 10039 20033 53003 =
2019-01-15 04:54 METAR KMEM 151054Z 00000KT 10SM OVC023 04/M01 A3035 RMK AO2 SLP278 T00391006 =
2019-01-15 03:54 METAR KMEM 150954Z 00000KT 9SM OVC023 04/M01 A3035 RMK AO2 SLP279 T00391006 =
2019-01-15 02:54 METAR KMEM 150854Z 03003KT 9SM OVC023 04/M01 A3035 RMK AO2 SLP278 T00391006
                 58007 =
2019-01-15 01:54 METAR KMEM 150754Z 33003KT 9SM OVC023 03/00 A3036 RMK AO2 SLP282 T00330000 =
2019-01-15 00:54 METAR KMEM 150654Z 33004KT 7SM OVC021 03/01 A3036 RMK AO2 SLP282 T00330011 =
2019-01-14 23:54 METAR KMEM 150554Z 00000KT 9SM OVC024 03/01 A3037 RMK AO2 SLP285 T00330006 10039
                 20033 400440022 58001 =
2019-01-14 22:54 METAR KMEM 150454Z 00000KT 9SM OVC027 03/01 A3038 RMK AO2 SLP287 T00330006 =
2019-01-14 21:54 METAR KMEM 150354Z 00000KT 10SM FEW016 OVC029 04/01 A3038 RMK AO2 SLP290
                 T00390006 =
2019-01-14 20:54 METAR KMEM 150254Z 00000KT 10SM BKN016 OVC028 03/01 A3037 RMK AO2 SLP287
                 T00330006 50002 =
2019-01-14 19:54 METAR KMEM 150154Z 33003KT 10SM BKN016 OVC034 03/00 A3038 RMK AO2 SLP289
                 T00330000 =
2019-01-14 19:10 METAR KMEM 150110Z 00000KT 10SM BKN017 OVC034 03/00 A3037 RMK AO2 T00330000 =
2019-01-14 18:54 METAR KMEM 150054Z 35004KT 10SM FEW018 OVC035 03/00 A3037 RMK AO2 SLP287
                 T00330000 =
2019-01-14 18:27 METAR KMEM 150027Z 33003KT 10SM SCT017 OVC035 03/00 A3037 RMK AO2 T00330000 =
2019-01-14 17:54 METAR KMEM 142354Z 32005KT 10SM BKN017 OVC035 03/00 A3037 RMK AO2 SLP285
                 T00330000 10044 20033 56005 =
2019-01-14 17:36 METAR KMEM 142336Z 31005KT 10SM BKN017 OVC036 03/00 A3037 RMK AO2 T00330000 =
2019-01-14 16:54 METAR KMEM 142254Z 34005KT 10SM SCT016 OVC038 03/00 A3037 RMK AO2 SLP285
                 T00330000 =
2019-01-14 16:44 METAR KMEM 142244Z 32006KT 10SM SCT016 OVC038 03/00 A3037 RMK AO2 T00330000 =
2019-01-14 15:54 METAR KMEM 142154Z 34006KT 10SM BKN016 OVC037 04/01 A3038 RMK AO2 SLP287
                 T00390006 =
2019-01-14 14:54 METAR KMEM 142054Z 33005KT 10SM OVC017 04/01 A3038 RMK AO2 SLP288 T00390006
                 56013 =
2019-01-14 13:54 METAR KMEM 141954Z 32006KT 10SM OVC015 04/01 A3039 RMK AO2 SLP292 T00390006 =
2019-01-14 13:21 METAR KMEM 141921Z 33006KT 10SM OVC015 04/01 A3039 RMK AO2 T00390006 =
2019-01-14 12:54 METAR KMEM 141854Z 31007KT 10SM OVC014 04/01 A3039 RMK AO2 SLP293 T00390006 =
2019-01-14 11:54 METAR KMEM 141754Z 34005KT 8SM OVC012 04/01 A3042 RMK AO2 SLP301 T00390006 10039
                 20022 58003 =
2019-01-14 10:54 METAR KMEM 141654Z 32004KT 6SM HZ OVC011 03/01 A3045 RMK AO2 SLP312 T00330006 =
2019-01-14 09:54 METAR KMEM 141554Z 34003KT 6SM BR BKN010 OVC015 03/01 A3044 RMK AO2 SLP309
                 T00280006 =
2019-01-14 09:45 METAR KMEM 141545Z 35006KT 6SM BR BKN010 OVC015 03/01 A3045 RMK AO2 T00280006 =
2019-01-14 08:54 METAR KMEM 141454Z 34005KT 6SM BR OVC009 02/01 A3043 RMK AO2 SLP305 T00220006
                 53005 =
2019-01-14 07:54 METAR KMEM 141354Z 01005KT 6SM BR OVC009 02/01 A3041 RMK AO2 SLP301 T00220006 =
2019-01-14 07:11 METAR KMEM 141311Z 01005KT 9SM OVC009 02/00 A3042 RMK AO2 T00220000 =
2019-01-14 06:54 METAR KMEM 141254Z 02007KT 10SM OVC010 02/00 A3042 RMK AO2 SLP301 T00220000 =
2019-01-14 05:54 METAR KMEM 141154Z 34006KT 10SM OVC013 02/00 A3041 RMK AO2 SLP299 T00220000
                 10028 20022 53005 =
2019-01-14 04:54 METAR KMEM 141054Z 36007KT 10SM OVC012 02/00 A3039 RMK AO2 SLP291 T00220000 =
2019-01-14 03:54 METAR KMEM 140954Z 35005KT 10SM OVC012 02/00 A3039 RMK AO2 SLP293 T00220000 =
2019-01-14 03:09 METAR KMEM 140909Z 34008KT 10SM OVC013 02/00 A3039 RMK AO2 T00220000 =
2019-01-14 02:54 METAR KMEM 140854Z 35007KT 10SM OVC015 02/00 A3039 RMK AO2 SLP293 T00220000
                 53008 =
2019-01-14 01:54 METAR KMEM 140754Z 34006KT 10SM OVC015 02/01 A3038 RMK AO2 SLP289 T00220006 =
2019-01-14 01:26 METAR KMEM 140726Z 35008KT 10SM OVC016 02/00 A3037 RMK AO2 T00220000 =
2019-01-14 00:54 METAR KMEM 140654Z 34008KT 10SM OVC012 02/01 A3037 RMK AO2 SLP285 T00220006 =
2019-01-14 00:44 METAR KMEM 140644Z 34006KT 10SM OVC012 02/01 A3037 RMK AO2 T00220006 =
2019-01-14 00:25 METAR KMEM 140625Z 35008KT 10SM OVC015 03/01 A3037 RMK AO2 T00280006 =
2019-01-13 23:54 METAR KMEM 140554Z 35008KT 10SM BKN012 OVC020 03/01 A3037 RMK AO2 DZE23 SLP285
                 P0000 60000 T00280011 10044 20028 400670028 58001 =
2019-01-13 23:52 METAR KMEM 140552Z 35007KT 10SM BKN012 OVC020 03/01 A3037 RMK AO2 DZE23 P0000 =
2019-01-13 22:54 METAR KMEM 140454Z 34006KT 7SM -DZ FEW011 BKN017 OVC028 03/01 A3037 RMK AO2
                 SLP287 P0000 T00280011 =
2019-01-13 21:54 METAR KMEM 140354Z 36007KT 7SM -DZ OVC012 03/02 A3037 RMK AO2 DZB41 SLP286 P0000
                 T00330017 =
2019-01-13 20:54 METAR KMEM 140254Z 33007KT 10SM OVC013 03/02 A3036 RMK AO2 DZE0158 SLP283 P0000
                 60000 T00330017 53009 =
2019-01-13 19:54 METAR KMEM 140154Z 32007KT 7SM -DZ OVC013 03/02 A3035 RMK AO2 DZB41 SLP279 P0000
                 T00330017 =
2019-01-13 18:54 METAR KMEM 140054Z 35006KT 10SM OVC016 04/01 A3035 RMK AO2 SLP277 T00390011 =
2019-01-13 17:54 METAR KMEM 132354Z 32009KT 10SM OVC017 04/01 A3033 RMK AO2 SLP273 T00440011
                 10050 20044 53017 =
2019-01-13 16:54 METAR KMEM 132254Z 32007KT 10SM OVC016 04/01 A3031 RMK AO2 SLP266 T00440011 =
2019-01-13 15:54 METAR KMEM 132154Z 32006KT 10SM OVC016 04/02 A3030 RMK AO2 SLP261 T00440017 =
2019-01-13 14:54 METAR KMEM 132054Z 33010KT 10SM OVC015 04/02 A3029 RMK AO2 SLP257 T00440017
                 53012 =
2019-01-13 13:54 METAR KMEM 131954Z 31009KT 10SM OVC015 04/02 A3027 RMK AO2 SLP250 T00440017 =
2019-01-13 12:54 METAR KMEM 131854Z 32012KT 10SM OVC015 04/02 A3025 RMK AO2 SLP243 T00440017 =
2019-01-13 11:54 METAR KMEM 131754Z 32010KT 10SM OVC015 04/02 A3025 RMK AO2 SLP245 T00440017
                 10050 20044 50006 =
2019-01-13 10:54 METAR KMEM 131654Z 31012KT 10SM OVC015 04/02 A3027 RMK AO2 SLP252 T00440017 =
2019-01-13 09:54 METAR KMEM 131554Z 31011KT 10SM OVC016 04/02 A3027 RMK AO2 SLP251 T00440017 =
2019-01-13 08:54 METAR KMEM 131454Z 31014G17KT 10SM OVC016 04/02 A3023 RMK AO2 SLP238 T00440022
                 53027 =
2019-01-13 07:54 METAR KMEM 131354Z 31011KT 10SM OVC015 04/02 A3020 RMK AO2 SLP226 T00440022 =
2019-01-13 06:54 METAR KMEM 131254Z 30011KT 10SM OVC015 04/02 A3018 RMK AO2 SLP221 T00440022 =
2019-01-13 06:43 METAR KMEM 131243Z 30008KT 10SM OVC015 04/03 A3018 RMK AO2 T00440028 =
2019-01-13 05:54 METAR KMEM 131154Z 30011KT 10SM OVC014 04/03 A3015 RMK AO2 SLP212 70057
                 T00440028 10067 20044 53017 =
2019-01-13 04:54 METAR KMEM 131054Z 30009KT 10SM OVC014 05/03 A3013 RMK AO2 SLP204 T00500028 =
2019-01-13 03:54 METAR KMEM 130954Z 30010KT 10SM OVC014 05/03 A3011 RMK AO2 SLP197 T00500028 =
2019-01-13 02:54 METAR KMEM 130854Z 30010G20KT 10SM OVC014 06/03 A3010 RMK AO2 SLP194 T00560033
                 51022 =
2019-01-13 02:30 METAR KMEM 130830Z 29011KT 10SM OVC013 06/04 A3010 RMK AO2 T00560039 =
2019-01-13 01:54 METAR KMEM 130754Z 31012KT 10SM FEW009 OVC019 06/04 A3009 RMK AO2 SLP188
                 T00560039 =
2019-01-13 01:42 METAR KMEM 130742Z 30008KT 10SM FEW009 SCT011 OVC019 06/04 A3008 RMK AO2
                 T00560039 =
2019-01-13 01:16 METAR KMEM 130716Z 31009KT 10SM SCT009 OVC011 06/04 A3007 RMK AO2 T00560044 =
2019-01-13 00:54 METAR KMEM 130654Z 30013KT 10SM BKN009 OVC011 06/05 A3006 RMK AO2 SLP179
                 T00610050 =
2019-01-13 00:04 METAR KMEM 130604Z 29009KT 10SM OVC009 07/06 A3004 RMK AO2 T00670061 =
2019-01-12 23:54 METAR KMEM 130554Z 30011KT 10SM BKN011 OVC018 07/06 A3004 RMK AO2 SLP172 60004
                 T00670061 10094 20067 400940050 51014 =
2019-01-12 22:54 METAR KMEM 130454Z 29010KT 10SM OVC012 08/07 A3003 RMK AO2 SLP168 T00780067 =
2019-01-12 22:08 METAR KMEM 130408Z 30010G17KT 10SM SCT009 OVC014 08/07 A3002 RMK AO2 T00780072 =
2019-01-12 21:54 METAR KMEM 130354Z 30009G16KT 7SM BKN009 OVC014 08/08 A3001 RMK AO2 RAE37 CIG
                 008V012 SLP163 P0000 T00830078 =
2019-01-12 21:16 METAR KMEM 130316Z 28012KT 6SM -RA BR SCT007 OVC013 09/08 A3001 RMK AO2 P0000
                 T00890083 =
2019-01-12 20:54 METAR KMEM 130254Z 28009G16KT 4SM -RA BR BKN005 OVC012 09/09 A3000 RMK AO2 RAB24
                 SLP158 P0002 60004 T00940089 53016 =
2019-01-12 20:29 METAR KMEM 130229Z 25009KT 6SM -RA BR BKN007 OVC014 09/09 A2999 RMK AO2 RAB24
                 P0000 T00940094 =
2019-01-12 20:19 METAR KMEM 130219Z VRB05KT 7SM SCT005 OVC011 09/09 A2998 RMK AO2 T00940094 =
2019-01-12 19:54 METAR KMEM 130154Z 23006KT 7SM BKN005 OVC022 09/09 A2998 RMK AO2 RAE30 SLP151
                 P0002 T00940094 =
2019-01-12 19:05 METAR KMEM 130105Z 20006KT 4SM -RA BR BKN005 OVC022 09/09 A2997 RMK AO2 P0001
                 T00890089 =
2019-01-12 18:54 METAR KMEM 130054Z 20007KT 4SM -RA BR BKN004 OVC010 09/09 A2996 RMK AO2 RAB34
                 CIG 003V007 SLP146 P0000 T00890089 =
2019-01-12 18:01 METAR KMEM 130001Z 17007KT 3SM BR OVC004 09/09 A2995 RMK AO2 T00890089 =
2019-01-12 17:54 METAR KMEM 122354Z 17006KT 2 1/2SM BR OVC004 09/09 A2995 RMK AO2 RAE52 SLP142
                 P0001 60015 T00890089 10094 20072 51009 =
2019-01-12 17:50 METAR KMEM 122350Z 16005KT 2 1/2SM -RA BR OVC004 09/09 A2995 RMK AO2 P0001 =
2019-01-12 17:19 METAR KMEM 122319Z 17008KT 2 1/2SM -RA BR OVC006 09/09 A2994 RMK AO2 CIG 004V008
                 P0000 T00890089 =
2019-01-12 16:54 METAR KMEM 122254Z 15008KT 6SM -RA BR OVC008 09/08 A2993 RMK AO2 RAB49 SLP136
                 P0000 T00940083 =
2019-01-12 15:54 METAR KMEM 122154Z 16007KT 10SM OVC009 09/08 A2992 RMK AO2 RAB01E19 CIG 008V013
                 SLP132 P0000 T00940083 =
2019-01-12 14:54 METAR KMEM 122054Z 15010KT 10SM OVC008 09/08 A2992 RMK AO2 RAB10E30 CIG 007V011
                 SLP131 P0000 60014 T00890078 56021 =
2019-01-12 13:54 METAR KMEM 121954Z 16012KT 10SM OVC008 09/08 A2993 RMK AO2 SLP135 T00890078 =
2019-01-12 12:54 METAR KMEM 121854Z 16009KT 10SM OVC008 08/07 A2994 RMK AO2 RAE42 CIG 007V012
                 SLP139 P0014 T00780072 =
2019-01-12 11:54 METAR KMEM 121754Z VRB04KT 4SM RA BR BKN009 BKN014 OVC019 07/06 A2998 RMK AO2
                 CIG 007V012 SLP153 P0012 60038 T00720061 10083 20067 58021 =
2019-01-12 11:46 METAR KMEM 121746Z 14006KT 5SM RA BR BKN009 OVC016 07/06 A2998 RMK AO2 CIG
                 007V011 P0010 T00720061 =
2019-01-12 11:32 METAR KMEM 121732Z 14006KT 6SM RA BR SCT009 BKN016 OVC039 07/06 A2999 RMK AO2
                 P0007 T00670061 =
2019-01-12 11:21 METAR KMEM 121721Z 14004KT 5SM RA BR FEW014 BKN026 OVC070 07/06 A3000 RMK AO2
                 P0005 T00670061 =
2019-01-12 11:01 METAR KMEM 121701Z 13007KT 6SM RA BR SCT018 BKN041 OVC070 07/06 A3002 RMK AO2
                 P0001 T00670056 =
2019-01-12 10:54 METAR KMEM 121654Z 13009KT 5SM RA BR SCT018 BKN029 OVC065 07/06 A3003 RMK AO2
                 SLP168 P0007 T00670056 =
2019-01-12 10:49 METAR KMEM 121649Z 13008KT 6SM RA BR SCT018 BKN026 OVC044 07/06 A3002 RMK AO2
                 P0006 =
2019-01-12 09:54 METAR KMEM 121554Z 14010KT 10SM -RA SCT022 BKN030 OVC080 07/05 A3004 RMK AO2
                 SLP174 P0007 T00670050 =
2019-01-12 09:51 METAR KMEM 121551Z 14009KT 10SM -RA SCT022 BKN028 OVC080 07/05 A3005 RMK AO2
                 P0006 =
2019-01-12 08:54 METAR KMEM 121454Z 12008KT 10SM -RA FEW032 OVC065 07/04 A3003 RMK AO2 SLP169
                 P0011 60012 T00670039 56013 =
2019-01-12 08:45 METAR KMEM 121445Z 13009KT 8SM -RA FEW028 SCT037 OVC060 07/04 A3003 RMK AO2
                 P0010 T00670039 =
2019-01-12 07:54 METAR KMEM 121354Z 14009KT 7SM RA BKN037 BKN050 OVC070 08/02 A3004 RMK AO2 RAB37
                 SLP173 P0001 T00780022 =
2019-01-12 07:14 METAR KMEM 121314Z 12007KT 10SM SCT033 OVC100 08/M01 A3003 RMK AO2 T00831006 =
2019-01-12 06:54 METAR KMEM 121254Z 11007KT 10SM BKN033 OVC100 08/M01 A3005 RMK AO2 SLP176
                 T00781006 =
2019-01-12 06:49 METAR KMEM 121249Z 12003KT 10SM BKN033 OVC100 08/M01 A3006 RMK AO2 =
2019-01-12 05:54 METAR KMEM 121154Z 10004KT 10SM FEW033 OVC100 07/M01 A3007 RMK AO2 SLP182 70007
                 T00721006 10083 20050 58000 =
2019-01-12 04:54 METAR KMEM 121054Z 11003KT 10SM OVC095 08/M02 A3007 RMK AO2 SLP182 T00831017 =
2019-01-12 03:54 METAR KMEM 120954Z 19003KT 10SM BKN085 BKN110 08/M01 A3008 RMK AO2 SLP187
                 T00781006 =
2019-01-12 02:54 METAR KMEM 120854Z 18004KT 10SM BKN090 BKN110 08/M01 A3007 RMK AO2 SLP182
                 T00781011 55010 =
2019-01-12 01:54 METAR KMEM 120754Z 14008KT 10SM SCT075 BKN100 08/M02 A3005 RMK AO2 SLP176
                 T00781017 =
2019-01-12 00:54 METAR KMEM 120654Z 12007KT 10SM OVC095 06/M01 A3005 RMK AO2 SLP178 T00611006 =
2019-01-11 23:54 METAR KMEM 120554Z 12008KT 10SM OVC075 06/M01 A3010 RMK AO2 SLP192 60007
                 T00561006 10056 20028 400560000 58024 =
2019-01-11 22:54 METAR KMEM 120454Z 11011KT 070V140 10SM OVC085 04/M01 A3011 RMK AO2 SLP198
                 T00441006 =
2019-01-11 21:54 METAR KMEM 120354Z 11011KT 8SM OVC075 04/01 A3015 RMK AO2 SLP212 T00390006 =
2019-01-11 20:54 METAR KMEM 120254Z 08011KT 8SM OVC090 03/01 A3017 RMK AO2 SLP217 60007 T00330011
                 58022 =
2019-01-11 19:54 METAR KMEM 120154Z 07008KT 8SM OVC085 03/01 A3020 RMK AO2 RAE15 SLP229 P0001
                 T00280011 =
2019-01-11 18:54 METAR KMEM 120054Z 05008KT 6SM RA BR OVC090 03/01 A3022 RMK AO2 SLP235 P0006
                 T00280011 =
2019-01-11 17:54 METAR KMEM 112354Z 05007KT 7SM -RA OVC070 04/M01 A3023 RMK AO2 SLP240 P0000
                 60000 T00391006 10056 20039 53017 =
2019-01-11 16:54 METAR KMEM 112254Z 06007KT 7SM -RA BKN075 OVC120 05/M02 A3021 RMK AO2 RAB36
                 SLP231 P0000 T00501017 =
2019-01-11 15:54 METAR KMEM 112154Z 02005KT 10SM OVC075 06/M04 A3020 RMK AO2 SLP227 T00561039 =
2019-01-11 14:54 METAR KMEM 112054Z 08006KT 10SM BKN065 OVC085 06/M04 A3018 RMK AO2 SLP221 60000
                 T00561044 56034 =
2019-01-11 13:54 METAR KMEM 111954Z 08008KT 10SM OVC070 05/M05 A3019 RMK AO2 RAB1857E20 SLP224
                 P0000 T00501050 =
2019-01-11 13:13 METAR KMEM 111913Z 04006KT 10SM -RA OVC065 05/M04 A3022 RMK AO2 RAB1857 P0000
                 T00501039 =
2019-01-11 12:54 METAR KMEM 111854Z 00000KT 10SM OVC070 04/M05 A3024 RMK AO2 RAB05E17 SLP241 VCSH
                 P0000 T00441050 =
2019-01-11 11:54 METAR KMEM 111754Z 00000KT 10SM BKN070 OVC090 04/M06 A3028 RMK AO2 SLP257
                 T00391061 10039 20011 58008 =
2019-01-11 10:54 METAR KMEM 111654Z 03003KT 10SM OVC075 03/M06 A3031 RMK AO2 SLP265 T00331056 =
2019-01-11 09:54 METAR KMEM 111554Z VRB04KT 10SM OVC075 03/M06 A3033 RMK AO2 SLP272 T00281061 =
2019-01-11 08:54 METAR KMEM 111454Z 11005KT 10SM OVC080 02/M06 A3031 RMK AO2 SLP265 T00171061
                 57002 =
2019-01-11 07:54 METAR KMEM 111354Z 09008KT 10SM OVC085 02/M06 A3030 RMK AO2 SLP264 T00171061 =
2019-01-11 06:54 METAR KMEM 111254Z 07006KT 10SM OVC080 01/M07 A3032 RMK AO2 SLP269 T00111067 =
2019-01-11 05:54 METAR KMEM 111154Z 06004KT 10SM OVC080 01/M07 A3032 RMK AO2 SLP268 T00111067
                 10017 20000 53005 =
2019-01-11 04:54 METAR KMEM 111054Z 08006KT 10SM BKN080 01/M07 A3030 RMK AO2 SLP261 T00111067 =
2019-01-11 03:54 METAR KMEM 110954Z 13006KT 10SM BKN220 01/M07 A3028 RMK AO2 SLP255 T00111067 =
2019-01-11 02:54 METAR KMEM 110854Z 08007KT 10SM BKN200 01/M06 A3030 RMK AO2 SLP262 T00111061
                 53000 =
2019-01-11 01:54 METAR KMEM 110754Z 08011KT 10SM BKN110 01/M06 A3029 RMK AO2 SLP258 T00111056 =
2019-01-11 00:54 METAR KMEM 110654Z 06008KT 10SM BKN110 01/M06 A3029 RMK AO2 SLP259 T00111056 =
2019-01-10 23:54 METAR KMEM 110554Z 07009KT 10SM CLR 01/M06 A3030 RMK AO2 SLP262 T00111056 10033
                 20011 400721006 58001 =
2019-01-10 22:54 METAR KMEM 110454Z 05007KT 10SM FEW110 02/M06 A3032 RMK AO2 SLP268 T00171056 =
2019-01-10 21:54 METAR KMEM 110354Z 06007KT 10SM BKN110 02/M06 A3031 RMK AO2 SLP265 T00171056 =
2019-01-10 20:54 METAR KMEM 110254Z 05008KT 10SM BKN100 03/M05 A3030 RMK AO2 SLP264 T00281050
                 55006 =
2019-01-10 19:54 METAR KMEM 110154Z 05009KT 10SM BKN100 03/M04 A3030 RMK AO2 SLP263 T00331044 =
2019-01-10 18:54 METAR KMEM 110054Z 01005KT 10SM CLR 02/M04 A3032 RMK AO2 SLP269 T00221044 =
2019-01-10 17:54 METAR KMEM 102354Z 35004KT 10SM FEW250 03/M04 A3032 RMK AO2 SLP270 T00281039
                 10072 20028 58001 =
2019-01-10 16:54 METAR KMEM 102254Z 31006KT 10SM FEW200 SCT250 04/M03 A3032 RMK AO2 SLP269
                 T00391033 =
2019-01-10 15:54 METAR KMEM 102154Z 35004KT 10SM SCT200 BKN250 06/M06 A3033 RMK AO2 SLP272
                 T00611061 =
2019-01-10 14:54 METAR KMEM 102054Z 03005KT 10SM FEW180 BKN250 07/M07 A3033 RMK AO2 SLP270
                 T00671067 56018 =
2019-01-10 13:54 METAR KMEM 101954Z 01005KT 10SM FEW180 BKN250 06/M07 A3033 RMK AO2 SLP272
                 T00611067 =
2019-01-10 12:54 METAR KMEM 101854Z 02004KT 10SM SCT250 06/M07 A3035 RMK AO2 SLP278 T00561067 =
2019-01-10 11:54 METAR KMEM 101754Z 36006KT 10SM SCT250 06/M07 A3038 RMK AO2 SLP288 T00561067
                 10056 21006 58006 =
2019-01-10 10:54 METAR KMEM 101654Z 04008KT 10SM FEW250 04/M07 A3040 RMK AO2 SLP297 T00391072 =
2019-01-10 09:54 METAR KMEM 101554Z 04007KT 10SM FEW250 03/M07 A3042 RMK AO2 SLP301 T00281072 =
2019-01-10 08:54 METAR KMEM 101454Z 05011KT 10SM FEW250 01/M07 A3040 RMK AO2 SLP295 T00111067
                 53010 =
2019-01-10 07:54 METAR KMEM 101354Z 03008KT 10SM FEW250 00/M07 A3038 RMK AO2 SLP291 T00001067 =
2019-01-10 06:54 METAR KMEM 101254Z COR 05010KT 10SM SCT220 M01/M07 A3038 RMK AO2 SLP288
                 T10061067 =
2019-01-10 05:54 METAR KMEM 101154Z 04007KT 10SM SCT200 00/M06 A3037 RMK AO2 SLP285 T00001061
                 10033 21006 50002 =
2019-01-10 04:54 METAR KMEM 101054Z 03006KT 10SM SCT200 01/M06 A3037 RMK AO2 SLP285 T00061061 =
2019-01-10 03:54 METAR KMEM 100954Z 03005KT 10SM FEW200 02/M06 A3037 RMK AO2 SLP285 T00171061 =
2019-01-10 02:54 METAR KMEM 100854Z 04007KT 10SM CLR 02/M06 A3036 RMK AO2 SLP282 T00221061 58003
                 =
2019-01-10 01:54 METAR KMEM 100754Z 01006KT 10SM FEW250 02/M06 A3038 RMK AO2 SLP288 T00221061 =
2019-01-10 00:54 METAR KMEM 100654Z 36006KT 10SM SCT250 03/M06 A3037 RMK AO2 SLP286 T00281056 =
2019-01-09 23:54 METAR KMEM 100554Z 36008KT 10SM CLR 03/M05 A3037 RMK AO2 SLP285 T00281050 10056
                 20028 400940028 53009 =
2019-01-09 22:54 METAR KMEM 100454Z 35005KT 10SM CLR 04/M05 A3036 RMK AO2 SLP281 T00391050 =
2019-01-09 21:54 METAR KMEM 100354Z 34008KT 10SM CLR 04/M05 A3035 RMK AO2 SLP278 T00441050 =
2019-01-09 20:54 METAR KMEM 100254Z 32004KT 10SM CLR 04/M04 A3034 RMK AO2 SLP276 T00391039 56003
                 =
2019-01-09 19:54 METAR KMEM 100154Z 29003KT 10SM FEW250 05/M05 A3035 RMK AO2 SLP277 T00501050 =
2019-01-09 18:54 METAR KMEM 100054Z 33004KT 10SM CLR 05/M05 A3035 RMK AO2 SLP277 T00501050 =
2019-01-09 17:54 METAR KMEM 092354Z 32008KT 10SM CLR 06/M05 A3035 RMK AO2 SLP279 T00561050 10094
                 20056 51002 =
2019-01-09 16:54 METAR KMEM 092254Z 32011KT 10SM CLR 07/M05 A3035 RMK AO2 SLP278 T00721050 =
2019-01-09 15:54 METAR KMEM 092154Z 34010KT 10SM CLR 08/M04 A3035 RMK AO2 SLP279 T00831039 =
2019-01-09 14:54 METAR KMEM 092054Z 32012KT 10SM CLR 09/M03 A3035 RMK AO2 SLP276 T00891033 56016
                 =
2019-01-09 13:54 METAR KMEM 091954Z 33013KT 10SM CLR 09/M03 A3036 RMK AO2 SLP281 T00941033 =
2019-01-09 12:54 METAR KMEM 091854Z 32012G20KT 10SM CLR 09/M04 A3037 RMK AO2 SLP284 T00891044 =
2019-01-09 11:54 METAR KMEM 091754Z 33016KT 10SM CLR 08/M06 A3039 RMK AO2 SLP292 T00831056 10089
                 20028 58015 =
2019-01-09 10:54 METAR KMEM 091654Z 36012G20KT 10SM CLR 08/M05 A3043 RMK AO2 PK WND 34028/1556
                 SLP306 T00781050 =
2019-01-09 09:54 METAR KMEM 091554Z 33013G22KT 10SM CLR 07/M05 A3045 RMK AO2 SLP311 T00721050 =
2019-01-09 08:54 METAR KMEM 091454Z 32010KT 10SM CLR 06/M03 A3044 RMK AO2 SLP308 T00611028 53015
                 =
2019-01-09 07:54 METAR KMEM 091354Z 31008KT 10SM CLR 04/M02 A3041 RMK AO2 SLP299 T00391022 $ =
2019-01-09 06:54 METAR KMEM 091254Z 31007KT 10SM CLR 03/M03 A3040 RMK AO2 SLP294 T00331028 $ =
2019-01-09 05:54 METAR KMEM 091154Z 33008G16KT 10SM CLR 05/M03 A3039 RMK AO2 SLP292 T00501033
                 10083 20039 53009 $ =
2019-01-09 04:54 METAR KMEM 091054Z 33008KT 10SM CLR 05/M02 A3037 RMK AO2 SLP285 T00501022 $ =
2019-01-09 03:54 METAR KMEM 090954Z 31007KT 10SM CLR 05/M02 A3037 RMK AO2 SLP283 T00501017 $ =
2019-01-09 02:54 METAR KMEM 090854Z 32007KT 10SM CLR 06/M02 A3037 RMK AO2 SLP282 T00561017 53010
                 $ =
2019-01-09 01:54 METAR KMEM 090754Z 32006KT 10SM CLR 06/M03 A3035 RMK AO2 SLP278 T00611028 $ =
2019-01-09 00:54 METAR KMEM 090654Z 34007KT 10SM CLR 08/M03 A3034 RMK AO2 SLP274 T00781033 $ =
2019-01-08 23:54 METAR KMEM 090554Z 35008KT 10SM CLR 08/M02 A3034 RMK AO2 SLP271 T00831017 10133
                 20078 402000078 51013 $ =
2019-01-08 22:54 METAR KMEM 090454Z 33006KT 10SM CLR 08/M01 A3034 RMK AO2 SLP271 T00831006 $ =
2019-01-08 21:54 METAR KMEM 090354Z 34006KT 10SM CLR 09/00 A3032 RMK AO2 SLP266 T00890000 $ =
2019-01-08 20:54 METAR KMEM 090254Z 34010KT 10SM CLR 11/00 A3030 RMK AO2 SLP258 T01110000 51023 $
                 =
2019-01-08 19:54 METAR KMEM 090154Z 34008KT 10SM CLR 11/00 A3027 RMK AO2 SLP250 T01110000 $ =
2019-01-08 18:54 METAR KMEM 090054Z 32007KT 10SM CLR 12/01 A3025 RMK AO2 SLP243 T01170011 $ =
2019-01-08 17:54 METAR KMEM 082354Z 33009KT 10SM FEW250 13/00 A3023 RMK AO2 SLP235 T01280000
                 10200 20128 51020 $ =
2019-01-08 16:54 METAR KMEM 082254Z 32014G18KT 10SM SCT250 14/00 A3022 RMK AO2 SLP231 T01440000 $
                 =
2019-01-08 15:54 METAR KMEM 082154Z 32015G21KT 10SM SCT250 17/00 A3019 RMK AO2 SLP222 T01670000 $
                 =
2019-01-08 14:54 METAR KMEM 082054Z 30014KT 10SM BKN250 18/02 A3017 RMK AO2 SLP214 T01830022
                 53011 $ =
2019-01-08 13:54 METAR KMEM 081954Z 32008KT 10SM BKN250 19/04 A3015 RMK AO2 SLP209 T01890044 $ =
2019-01-08 12:54 METAR KMEM 081854Z 32016G20KT 10SM BKN250 19/03 A3014 RMK AO2 SLP204 T01940033 $
                 =
2019-01-08 11:54 METAR KMEM 081754Z 32013G18KT 10SM BKN250 19/09 A3014 RMK AO2 SLP204 T01890094
                 10189 20139 58001 $ =
2019-01-08 10:54 METAR KMEM 081654Z 27008KT 10SM BKN250 18/12 A3016 RMK AO2 SLP210 T01780122 $ =
2019-01-08 09:54 METAR KMEM 081554Z 29009KT 10SM FEW010 SCT250 17/13 A3016 RMK AO2 SLP210
                 T01670133 $ =
2019-01-08 09:08 METAR KMEM 081508Z 27010KT 10SM SCT007 16/14 A3015 RMK AO2 T01560139 $ =
2019-01-08 08:54 METAR KMEM 081454Z 29009KT 8SM SCT007 BKN013 14/13 A3014 RMK AO2 SLP204
                 T01440133 53029 $ =
2019-01-08 08:44 METAR KMEM 081444Z 28009KT 6SM BR SCT007 BKN013 14/14 A3013 RMK AO2 SCT007 V BKN
                 T01440139 $ =
2019-01-08 07:54 METAR KMEM 081354Z 27008KT 5SM BR OVC005 14/14 A3011 RMK AO2 SLP193 T01440139 $
                 =
2019-01-08 06:54 METAR KMEM 081254Z 25009G15KT 10SM BKN006 14/14 A3007 RMK AO2 SLP182 T01440139 $
                 =
2019-01-08 06:41 METAR KMEM 081241Z 24009KT 10SM BKN008 BKN021 14/14 A3007 RMK AO2 T01440139 $ =
2019-01-08 05:54 METAR KMEM 081154Z 24010KT 10SM FEW009 BKN026 15/14 A3005 RMK AO2 SLP175 70002
                 T01500144 10172 20144 53005 $ =
2019-01-08 05:37 METAR KMEM 081137Z 23011G16KT 10SM FEW009 BKN026 16/14 A3005 RMK AO2 T01560144 $
                 =
2019-01-08 04:54 METAR KMEM 081054Z 22009G16KT 10SM FEW018 BKN029 15/14 A3004 RMK AO2 SLP170
                 T01500144 $ =
2019-01-08 04:52 METAR KMEM 081052Z 22010G16KT 10SM FEW018 BKN029 14/14 A3004 RMK AO2 $ =
2019-01-08 04:01 METAR KMEM 081001Z 22007KT 10SM FEW012 FEW038 15/14 A3003 RMK AO2 T01500139 $ =
2019-01-08 03:54 METAR KMEM 080954Z 21008KT 10SM BKN012 BKN035 15/14 A3003 RMK AO2 SLP167
                 T01500139 $ =
2019-01-08 03:13 METAR KMEM 080913Z 22009KT 10SM BKN013 BKN041 16/14 A3004 RMK AO2 T01560144 $ =
2019-01-08 02:54 METAR KMEM 080854Z 23007KT 10SM SCT014 BKN043 16/14 A3004 RMK AO2 SLP170
                 T01610144 51005 $ =
2019-01-08 02:46 METAR KMEM 080846Z 23010KT 10SM SCT016 BKN043 16/14 A3004 RMK AO2 T01560139 $ =
2019-01-08 02:09 METAR KMEM 080809Z 22009KT 10SM SCT018 BKN024 BKN050 16/14 A3004 RMK AO2
                 T01610139 $ =
2019-01-08 01:54 METAR KMEM 080754Z 22010KT 10SM SCT018 SCT024 BKN050 16/14 A3003 RMK AO2 SLP168
                 T01610139 $ =
2019-01-08 00:54 METAR KMEM 080654Z 23008G18KT 10SM SCT020 SCT046 16/14 A3003 RMK AO2 SLP167
                 T01610139 $ =
2019-01-08 00:40 METAR KMEM 080640Z 22011G17KT 190V250 10SM SCT021 SCT032 17/14 A3003 RMK AO2
                 T01670139 $ =
2019-01-08 00:32 METAR KMEM 080632Z 21010G18KT 160V250 10SM SCT021 BKN032 BKN044 17/14 A3003 RMK
                 AO2 T01670139 $ =
2019-01-08 00:14 METAR KMEM 080614Z 22010G21KT 10SM BKN024 BKN030 BKN047 17/14 A3003 RMK AO2
                 T01720139 $ =
2019-01-07 23:54 METAR KMEM 080554Z 20010G24KT 180V240 10SM SCT021 BKN038 17/14 A3002 RMK AO2
                 SLP165 T01720139 10172 20161 401720100 50005 $ =
2019-01-07 23:47 METAR KMEM 080547Z 21009G22KT 170V250 10SM SCT021 BKN038 17/14 A3002 RMK AO2
                 T01720139 $ =
2019-01-07 23:14 METAR KMEM 080514Z 20014G20KT 10SM SCT024 BKN040 17/14 A3001 RMK AO2 T01720139 $
                 =
2019-01-07 22:54 METAR KMEM 080454Z 22011G17KT 10SM SCT026 BKN038 17/14 A3003 RMK AO2 SLP165
                 T01720139 $ =
2019-01-07 21:54 METAR KMEM 080354Z 20010KT 10SM FEW026 SCT036 16/13 A3002 RMK AO2 SLP163
                 T01610133 $ =
2019-01-07 21:41 METAR KMEM 080341Z 20008KT 10SM FEW022 SCT035 16/13 A3002 RMK AO2 T01610133 $ =
2019-01-07 20:54 METAR KMEM 080254Z 20011KT 10SM SCT023 BKN034 17/14 A3001 RMK AO2 SLP161
                 T01670139 51005 $ =
2019-01-07 20:12 METAR KMEM 080212Z 21010G16KT 10SM FEW020 SCT034 17/14 A3001 RMK AO2 T01670139 $
                 =
2019-01-07 19:54 METAR KMEM 080154Z 21010KT 10SM FEW022 BKN034 17/14 A3001 RMK AO2 SLP160
                 T01670139 $ =
2019-01-07 19:39 METAR KMEM 080139Z 20008KT 10SM FEW028 BKN034 17/14 A3001 RMK AO2 T01670139 $ =
2019-01-07 19:22 METAR KMEM 080122Z 20008KT 10SM BKN028 17/14 A3001 RMK AO2 T01670139 $ =
2019-01-07 18:54 METAR KMEM 080054Z 20012KT 10SM SCT023 BKN031 17/14 A3000 RMK AO2 SLP157
                 T01670139 $ =
2019-01-07 18:45 METAR KMEM 080045Z 20011KT 10SM SCT023 OVC031 17/14 A3000 RMK AO2 T01670139 $ =
2019-01-07 17:54 METAR KMEM 072354Z 20012G19KT 10SM BKN022 OVC034 17/14 A3000 RMK AO2 SLP156
                 60002 T01670139 10167 20156 50002 $ =
2019-01-07 16:54 METAR KMEM 072254Z 19009G16KT 10SM OVC021 16/14 A3000 RMK AO2 SLP157 T01610139 $
                 =
2019-01-07 15:54 METAR KMEM 072154Z 20009KT 10SM OVC019 16/14 A3000 RMK AO2 SLP157 T01610139 $ =
2019-01-07 14:54 METAR KMEM 072054Z 22012G22KT 10SM BKN020 BKN040 OVC095 16/13 A2999 RMK AO2
                 RAE27 SLP154 P0002 60002 T01610133 50005 $ =
2019-01-07 13:54 METAR KMEM 071954Z 21014G20KT 10SM -RA BKN021 BKN041 OVC090 16/13 A3000 RMK AO2
                 PK WND 22027/1914 RAB28 SLP158 P0000 T01560133 $ =
2019-01-07 13:34 METAR KMEM 071934Z 21015G23KT 10SM -RA OVC021 16/13 A3001 RMK AO2 PK WND
                 22027/1914 RAB28 P0000 T01610128 $ =
2019-01-07 12:54 METAR KMEM 071854Z 21015G26KT 10SM BKN023 OVC050 16/12 A3000 RMK AO2 PK WND
                 22027/1810 SLP157 T01610122 $ =
2019-01-07 12:21 METAR KMEM 071821Z 21013G22KT 10SM BKN027 BKN055 OVC140 17/12 A2999 RMK AO2 PK
                 WND 22027/1810 T01670122 $ =
2019-01-07 11:54 METAR KMEM 071754Z 20013G24KT 10SM FEW033 BKN060 OVC140 17/12 A2998 RMK AO2 PK
                 WND 20028/1720 PRESFR SLP150 T01670122 10167 20100 58032 $ =
2019-01-07 10:54 METAR KMEM 071654Z 20015KT 10SM BKN041 BKN200 OVC250 16/11 A3003 RMK AO2 SLP168
                 T01560111 $ =
2019-01-07 10:21 METAR KMEM 071621Z 20014G21KT 10SM FEW017 BKN045 BKN200 OVC250 16/11 A3006 RMK
                 AO2 T01560111 $ =
2019-01-07 09:54 METAR KMEM 071554Z 20013KT 10SM FEW017 SCT200 BKN250 15/11 A3007 RMK AO2 SLP181
                 T01500111 $ =
2019-01-07 09:35 METAR KMEM 071535Z 20017G24KT 10SM SCT015 BKN200 BKN250 15/11 A3006 RMK AO2
                 SCT015 V BKN T01500111 $ =
2019-01-07 09:15 METAR KMEM 071515Z 20013G21KT 10SM BKN014 13/11 A3007 RMK AO2 T01330106 $ =
2019-01-07 08:54 METAR KMEM 071454Z 21014G28KT 10SM OVC016 13/11 A3007 RMK AO2 PK WND 21028/1450
                 SLP182 T01330106 55000 $ =
2019-01-07 08:09 METAR KMEM 071409Z 19013G18KT 10SM BKN018 BKN210 OVC250 13/09 A3006 RMK AO2
                 BKN018 V SCT T01330094 $ =
2019-01-07 07:54 METAR KMEM 071354Z 19011KT 10SM SCT018 BKN210 OVC250 12/09 A3006 RMK AO2 SLP178
                 T01220089 $ =
2019-01-07 07:47 METAR KMEM 071347Z 18010KT 10SM SCT018 OVC210 12/08 A3006 RMK AO2 T01170083 $ =
2019-01-07 07:09 METAR KMEM 071309Z 20008KT 10SM BKN019 OVC200 11/07 A3008 RMK AO2 T01110072 $ =
2019-01-07 06:54 METAR KMEM 071254Z 18009KT 10SM FEW040 SCT160 BKN210 11/07 A3006 RMK AO2 SLP178
                 T01060072 $ =
2019-01-07 05:54 METAR KMEM 071154Z 17007KT 10SM BKN180 11/07 A3007 RMK AO2 SLP182 T01060067
                 10128 20100 55001 $ =
2019-01-07 04:54 METAR KMEM 071054Z COR 18007KT 10SM SCT160 BKN200 11/06 A3006 RMK AO2 SLP178
                 T01060061 $ =
2019-01-07 03:54 METAR KMEM 070954Z 20007KT 10SM SCT190 BKN250 11/06 A3007 RMK AO2 SLP182
                 T01060061 $ =
2019-01-07 02:54 METAR KMEM 070854Z 19008KT 10SM SCT190 BKN240 12/06 A3007 RMK AO2 SLP182
                 T01220061 53004 $ =
2019-01-07 01:54 METAR KMEM 070754Z 18007KT 10SM BKN190 OVC240 11/06 A3007 RMK AO2 SLP180
                 T01060061 $ =
2019-01-07 00:54 METAR KMEM 070654Z 17009KT 10SM BKN200 OVC250 12/07 A3005 RMK AO2 SLP173
                 T01220067 $ =
2019-01-06 23:54 METAR KMEM 070554Z 16010KT 10SM SCT150 OVC250 12/07 A3006 RMK AO2 SLP179
                 T01220067 10144 20106 401890039 58017 $ =
2019-01-06 22:54 METAR KMEM 070454Z 16007KT 10SM SCT150 OVC250 12/07 A3009 RMK AO2 SLP188
                 T01170067 $ =
2019-01-06 21:54 METAR KMEM 070354Z 17007KT 10SM FEW150 BKN250 11/07 A3011 RMK AO2 SLP195
                 T01110067 $ =
2019-01-06 20:54 METAR KMEM 070254Z 17007KT 10SM FEW180 BKN250 11/06 A3011 RMK AO2 SLP197
                 T01060061 58001 $ =
2019-01-06 19:54 METAR KMEM 070154Z 13003KT 10SM BKN250 13/06 A3013 RMK AO2 SLP202 T01330056 $ =
2019-01-06 18:54 METAR KMEM 070054Z 16004KT 10SM FEW180 BKN250 12/05 A3012 RMK AO2 SLP198
                 T01220050 $ =
2019-01-06 17:54 METAR KMEM 062354Z 17005KT 10SM FEW180 BKN250 14/05 A3012 RMK AO2 SLP198
                 T01440050 10189 20144 51006 $ =
2019-01-06 16:54 METAR KMEM 062254Z 20005KT 10SM FEW180 SCT250 15/05 A3012 RMK AO2 SLP198
                 T01500050 $ =
2019-01-06 15:54 METAR KMEM 062154Z 18010KT 10SM FEW200 FEW250 18/06 A3010 RMK AO2 SLP191
                 T01780061 $ =
2019-01-06 14:54 METAR KMEM 062054Z 18009KT 10SM FEW200 SCT250 19/06 A3010 RMK AO2 SLP191
                 T01890061 56017 $ =
2019-01-06 13:54 METAR KMEM 061954Z 19010KT 10SM FEW200 BKN250 18/07 A3011 RMK AO2 SLP195
                 T01830072 $ =
2019-01-06 12:54 METAR KMEM 061854Z 18008KT 10SM FEW200 BKN250 18/08 A3013 RMK AO2 SLP201
                 T01830078 $ =
2019-01-06 11:54 METAR KMEM 061754Z 19006KT 10SM SCT200 BKN250 17/08 A3015 RMK AO2 SLP208
                 T01670078 10172 20056 58020 $ =
2019-01-06 10:54 METAR KMEM 061654Z 15005KT 10SM BKN250 13/07 A3018 RMK AO2 SLP221 T01330072 $ =
2019-01-06 09:54 METAR KMEM 061554Z 17007KT 10SM BKN250 11/07 A3018 RMK AO2 SLP221 T01060067 $ =
2019-01-06 08:54 METAR KMEM 061454Z 00000KT 10SM FEW200 BKN250 09/07 A3021 RMK AO2 SLP229
                 T00940072 53018 $ =
2019-01-06 07:54 METAR KMEM 061354Z 18005KT 10SM SCT230 BKN250 07/06 A3018 RMK AO2 SLP218
                 T00720056 $ =
2019-01-06 06:54 METAR KMEM 061254Z 17005KT 10SM BKN250 06/05 A3016 RMK AO2 SLP213 T00610050 $ =
2019-01-06 05:54 METAR KMEM 061154Z 19005KT 10SM BKN250 06/05 A3015 RMK AO2 SLP211 T00560050
                 10072 20039 55002 $ =
2019-01-06 04:54 METAR KMEM 061054Z 18005KT 10SM FEW250 05/04 A3015 RMK AO2 SLP210 T00500039 $ =
2019-01-06 03:54 METAR KMEM 060954Z 18004KT 10SM CLR 05/04 A3016 RMK AO2 SLP213 T00500044 $ =
2019-01-06 02:54 METAR KMEM 060854Z 00000KT 10SM CLR 05/04 A3016 RMK AO2 SLP213 T00500044 50006 $
                 =
2019-01-06 01:54 METAR KMEM 060754Z 20004KT 10SM CLR 07/06 A3016 RMK AO2 SLP214 T00670056 $ =
2019-01-06 00:54 METAR KMEM 060654Z 00000KT 10SM CLR 07/05 A3016 RMK AO2 SLP211 T00670050 $ =
2019-01-05 23:54 METAR KMEM 060554Z 00000KT 10SM CLR 06/05 A3014 RMK AO2 SLP206 T00610050 10106
                 20039 401440028 56009 $ =
2019-01-05 22:54 METAR KMEM 060454Z 18006KT 10SM CLR 07/06 A3014 RMK AO2 SLP207 T00670056 $ =
2019-01-05 21:54 METAR KMEM 060354Z 00000KT 10SM CLR 04/03 A3016 RMK AO2 SLP214 T00440028 $ =
2019-01-05 20:54 METAR KMEM 060254Z 00000KT 10SM CLR 07/04 A3017 RMK AO2 SLP216 T00720044 53010 $
                 =
2019-01-05 19:54 METAR KMEM 060154Z 17004KT 10SM CLR 07/04 A3014 RMK AO2 SLP206 T00670039 $ =
2019-01-05 18:54 METAR KMEM 060054Z 00000KT 10SM CLR 09/04 A3014 RMK AO2 SLP206 T00890044 $ =
2019-01-05 17:54 METAR KMEM 052354Z 22003KT 10SM CLR 10/04 A3014 RMK AO2 SLP206 T01000039 10144
                 20100 51011 $ =
2019-01-05 16:54 METAR KMEM 052254Z 23004KT 10SM CLR 12/04 A3013 RMK AO2 SLP202 T01220044 $ =
2019-01-05 15:54 METAR KMEM 052154Z 24006KT 10SM CLR 13/03 A3012 RMK AO2 SLP199 T01330033 $ =
2019-01-05 14:54 METAR KMEM 052054Z 24006KT 10SM CLR 14/04 A3010 RMK AO2 SLP194 T01390039 56004 $
                 =
2019-01-05 13:54 METAR KMEM 051954Z 24007KT 10SM CLR 13/04 A3011 RMK AO2 SLP195 T01330044 $ =
2019-01-05 12:54 METAR KMEM 051854Z 22003KT 10SM CLR 12/06 A3010 RMK AO2 SLP192 T01220061 $ =
2019-01-05 11:54 METAR KMEM 051754Z 22006KT 10SM CLR 10/07 A3012 RMK AO2 SLP199 T01000067 10100
                 20028 58001 $ =
2019-01-05 10:54 METAR KMEM 051654Z 21005KT 10SM FEW004 08/06 A3013 RMK AO2 SLP205 T00830061 $ =
2019-01-05 10:24 METAR KMEM 051624Z 23005KT 8SM SCT004 07/06 A3014 RMK AO2 T00670056 $ =
2019-01-05 10:13 METAR KMEM 051613Z 22008KT 6SM BR BKN004 06/06 A3014 RMK AO2 BKN V SCT T00610056
                 $ =
2019-01-05 09:54 METAR KMEM 051554Z 23004KT 2SM BR BKN004 05/04 A3014 RMK AO2 SFC VIS 6 SLP209
                 T00500044 $ =
2019-01-05 09:44 METAR KMEM 051544Z 22006KT 2SM BR OVC003 04/04 A3014 RMK AO2 SFC VIS 6 T00440044
                 $ =
2019-01-05 08:54 METAR KMEM 051454Z 21005KT 1/2SM R36L/4500VP6000FT BR OVC002 04/04 A3012 RMK AO2
                 SFC VIS 2 SLP200 T00390039 53026 $ =
2019-01-05 07:54 METAR KMEM 051354Z 22006KT 1/2SM R36L/2600V3000FT FG VV002 03/03 A3009 RMK AO2
                 SLP191 T00280028 $ =
2019-01-05 07:31 METAR KMEM 051331Z 22005KT 1/2SM R36L/2400V3000FT FG VV002 03/03 A3008 RMK AO2
                 T00280028 $ =
2019-01-05 07:17 METAR KMEM 051317Z 22006KT 3SM R36L/2400V3500FT BR BKN003 03/03 A3008 RMK AO2
                 T00280028 $ =
2019-01-05 07:15 METAR KMEM 051315Z 21005KT 4SM R36L/2400V4500FT BR SCT003 03/03 A3008 RMK AO2
                 T00280028 $ =
2019-01-05 06:54 METAR KMEM 051254Z 23005KT 10SM FEW010 03/03 A3006 RMK AO2 SLP181 T00280028 $ =
2019-01-05 05:54 METAR KMEM 051154Z 24004KT 10SM CLR 03/03 A3004 RMK AO2 SLP173 70004 T00330028
                 10044 20028 51009 $ =
2019-01-05 04:54 METAR KMEM 051054Z 25003KT 10SM CLR 03/03 A3003 RMK AO2 SLP170 T00330033 $ =
2019-01-05 03:54 METAR KMEM 050954Z 25004KT 10SM CLR 03/03 A3002 RMK AO2 SLP167 T00330033 $ =
2019-01-05 02:54 METAR KMEM 050854Z 23003KT 10SM CLR 03/03 A3001 RMK AO2 SLP164 T00330033 51018 $
                 =
2019-01-05 01:54 METAR KMEM 050754Z 24005KT 10SM CLR 04/04 A3000 RMK AO2 SLP159 T00440039 $ =
2019-01-05 00:54 METAR KMEM 050654Z 24007KT 10SM CLR 04/03 A2998 RMK AO2 SLP151 T00390033 $ =
2019-01-04 23:54 METAR KMEM 050554Z 25004KT 10SM CLR 03/03 A2996 RMK AO2 SLP145 T00330028 10056
                 20028 400940028 53002 $ =
2019-01-04 22:54 METAR KMEM 050454Z 20004KT 10SM CLR 03/03 A2995 RMK AO2 SLP142 T00330028 $ =
2019-01-04 21:54 METAR KMEM 050354Z 22004KT 10SM FEW060 SCT080 04/03 A2995 RMK AO2 SLP144
                 T00390033 $ =
2019-01-04 20:54 METAR KMEM 050254Z 29006KT 8SM BKN060 06/04 A2995 RMK AO2 SLP143 T00560039 51036
                 $ =
2019-01-04 19:54 METAR KMEM 050154Z 30011G16KT 7SM SCT014 BKN060 06/04 A2993 RMK AO2 SLP134
                 T00560044 $ =
2019-01-04 19:39 METAR KMEM 050139Z 31008KT 7SM FEW011 BKN060 05/04 A2992 RMK AO2 PRESRR
                 T00500044 $ =
2019-01-04 19:27 METAR KMEM 050127Z 30009KT 7SM SCT013 BKN022 OVC055 06/04 A2990 RMK AO2
                 T00560044 $ =
2019-01-04 19:25 METAR KMEM 050125Z 29008KT 7SM SCT013 OVC060 06/04 A2989 RMK AO2 T00560044 $ =
2019-01-04 18:54 METAR KMEM 050054Z 30011KT 7SM BKN012 OVC018 06/04 A2988 RMK AO2 SLP119
                 T00560044 $ =
2019-01-04 18:42 METAR KMEM 050042Z 30009KT 7SM BKN012 BKN018 OVC030 06/04 A2987 RMK AO2
                 T00560044 $ =
2019-01-04 18:19 METAR KMEM 050019Z 31010KT 7SM SCT012 OVC032 06/04 A2986 RMK AO2 T00560044 $ =
2019-01-04 17:54 METAR KMEM 042354Z 33010KT 7SM OVC012 06/05 A2985 RMK AO2 RAB11E24 SLP106 P0000
                 60003 T00560050 10067 20056 51024 $ =
2019-01-04 16:54 METAR KMEM 042254Z 27009KT 7SM BKN008 OVC015 06/05 A2982 RMK AO2 RAB08E23 SLP099
                 P0000 T00560050 $ =
2019-01-04 16:07 METAR KMEM 042207Z 27007KT 7SM BKN008 OVC015 06/05 A2980 RMK AO2 T00610050 $ =
2019-01-04 15:54 METAR KMEM 042154Z 27006KT 8SM BKN010 OVC015 06/05 A2980 RMK AO2 DZE44 SLP091
                 P0000 T00610050 $ =
2019-01-04 15:44 METAR KMEM 042144Z 28008KT 6SM BR BKN008 OVC014 06/05 A2979 RMK AO2 DZE44 P0000
                 T00610050 $ =
2019-01-04 15:25 METAR KMEM 042125Z 28011G17KT 5SM -DZ BR BKN007 OVC015 06/06 A2979 RMK AO2 CIG
                 005V011 P0000 T00610056 $ =
2019-01-04 15:13 METAR KMEM 042113Z 28010KT 2 1/2SM -DZ BR OVC007 06/06 A2978 RMK AO2 CIG 005V011
                 P0000 T00610056 $ =
2019-01-04 14:54 METAR KMEM 042054Z COR 27009G17KT 3SM -DZ BR BKN008 OVC015 06/06 A2978 RMK AO2
                 RAB01E09DZB09 SLP082 P0001 60003 T00610056 53016 $ =
2019-01-04 14:40 METAR KMEM 042040Z 28008KT 4SM -DZ BR BKN008 OVC015 06/06 A2977 RMK AO2 RAB01E09
                 BKN008 V SCT P0001 T00610056 $ =
2019-01-04 13:54 METAR KMEM 041954Z 26012KT 4SM -DZ BR SCT008 BKN012 OVC032 07/06 A2975 RMK AO2
                 RAE34DZB34 SLP074 SCT008 V BKN P0001 T00670061 $ =
2019-01-04 13:36 METAR KMEM 041936Z 26009G16KT 2SM R36L/5000VP6000FT -DZ BR SCT008 BKN011 OVC035
                 07/06 A2974 RMK AO2 SFC VIS 4 RAE34DZB34 SCT008 V BKN P0001 T00670061 $ =
2019-01-04 12:54 METAR KMEM 041854Z 27009G17KT 2SM -RA BR BKN008 BKN013 OVC020 07/06 A2974 RMK
                 AO2 DZB11E43RAB43 SLP069 P0001 T00670056 $ =
2019-01-04 12:39 METAR KMEM 041839Z 27009G19KT 2SM R36L/5000VP6000FT -DZ BR BKN008 BKN013 OVC019
                 06/06 A2973 RMK AO2 DZB11 P0000 T00610056 $ =
2019-01-04 12:37 METAR KMEM 041837Z 26007G19KT 2 1/2SM R36L/5000VP6000FT -DZ BR SCT008 BKN013
                 OVC018 06/06 A2973 RMK AO2 DZB11 P0000 T00610056 $ =
2019-01-04 12:12 METAR KMEM 041812Z 25013G19KT 6SM -DZ BR OVC010 07/06 A2973 RMK AO2 DZB11 CIG
                 008V012 P0000 T00670056 $ =
2019-01-04 11:54 METAR KMEM 041754Z 26010G19KT 10SM BKN009 OVC015 07/05 A2973 RMK AO2 SLP067
                 60001 T00670050 10083 20061 50001 $ =
2019-01-04 10:54 METAR KMEM 041654Z 24011KT 10SM OVC008 06/06 A2973 RMK AO2
                 RAB21E25B29E38DZB25E29 CIG 006V011 SLP069 P0000 T00610056 =
2019-01-04 10:25 METAR KMEM 041625Z 24009KT 4SM -DZ BR OVC008 06/06 A2973 RMK AO2 RAB21E25DZB25
                 CIG 006V010 P0000 T00610056 =
2019-01-04 09:54 METAR KMEM 041554Z 24014G21KT 10SM OVC009 07/06 A2973 RMK AO2 DZB22E37 SLP068
                 P0000 T00670056 =
2019-01-04 09:22 METAR KMEM 041522Z 24011G16KT 6SM -DZ BR BKN007 OVC011 07/06 A2974 RMK AO2 DZB22
                 CIG 005V009 P0000 T00670061 =
2019-01-04 08:54 METAR KMEM 041454Z 24010G20KT 8SM OVC009 07/06 A2973 RMK AO2 DZE33 CIG 006V012
                 SLP067 P0000 60001 T00670061 51023 =
2019-01-04 08:35 METAR KMEM 041435Z 23010KT 200V260 5SM BR BKN008 BKN012 OVC017 07/06 A2973 RMK
                 AO2 DZE33 CIG 005V008 P0000 T00670061 =
2019-01-04 08:11 METAR KMEM 041411Z 23012KT 3SM -DZ BR BKN005 BKN012 OVC017 07/06 A2972 RMK AO2
                 P0000 T00670061 =
2019-01-04 07:54 METAR KMEM 041354Z 23010KT 1 1/4SM -DZ BR OVC004 07/07 A2971 RMK AO2
                 DZB08RAB45E49 SLP061 P0001 T00670067 =
2019-01-04 07:25 METAR KMEM 041325Z 23008KT 1 3/4SM R36L/5500VP6000FT -DZ BR OVC003 07/07 A2971
                 RMK AO2 DZB08 P0000 T00670067 =
2019-01-04 06:54 METAR KMEM 041254Z 23009KT 3SM BR OVC003 07/07 A2968 RMK AO2 CIG 002V008 SLP050
                 T00720072 =
2019-01-04 05:54 METAR KMEM 041154Z 25005KT 3SM BR OVC003 08/08 A2966 RMK AO2 SLP043 60010 70014
                 T00830083 10094 20072 55010 =
2019-01-04 04:54 METAR KMEM 041054Z 29003KT 7SM BKN004 OVC010 08/08 A2966 RMK AO2
                 DZB0959E11RAB11E48 SLP043 P0003 T00830083 =
2019-01-04 04:18 METAR KMEM 041018Z 26006KT 3SM -RA BR BKN004 OVC009 09/09 A2968 RMK AO2
                 DZB0959E11RAB11 CIG 003V007 P0001 T00890089 =
2019-01-04 04:04 METAR KMEM 041004Z 25008KT 6SM -DZ BR BKN005 OVC011 09/09 A2967 RMK AO2 DZB0959
                 CIG 004V009 P0000 T00890089 =
2019-01-04 03:54 METAR KMEM 040954Z 16004KT 7SM FEW005 OVC012 09/09 A2967 RMK AO2 RAE50 SLP045
                 P0000 T00890089 =
2019-01-04 03:46 METAR KMEM 040946Z 16003KT 6SM -RA BR SCT005 OVC012 09/09 A2966 RMK AO2 P0000
                 T00890089 =
2019-01-04 02:54 METAR KMEM 040854Z 12006KT 5SM -RA BR BKN005 OVC010 08/08 A2969 RMK AO2 SLP053
                 P0003 60007 T00830083 56025 =
2019-01-04 01:54 METAR KMEM 040754Z 09010KT 4SM -RA BR OVC006 08/08 A2971 RMK AO2 RAB23 SLP059
                 P0003 T00830078 =
2019-01-04 00:54 METAR KMEM 040654Z 09012KT 9SM OVC006 08/07 A2973 RMK AO2 PK WND 09027/0605
                 RAE08 SLP067 P0001 T00780072 =
2019-01-03 23:54 METAR KMEM 040554Z 08016G22KT 7SM RA OVC006 07/07 A2976 RMK AO2 LTG DSNT SE
                 RAB38 PRESFR SLP078 P0001 60004 T00720067 10072 20067 400780039 58037 =
2019-01-03 22:54 METAR KMEM 040454Z 06009KT 10SM OVC007 07/06 A2982 RMK AO2 RAB0359E38 SLP100
                 P0000 T00720061 =
2019-01-03 21:54 METAR KMEM 040354Z 07008KT 10SM OVC009 07/06 A2987 RMK AO2 SLP115 T00670061 =
2019-01-03 21:28 METAR KMEM 040328Z 07009KT 10SM BKN009 OVC120 07/06 A2986 RMK AO2 T00670061 =
2019-01-03 20:54 METAR KMEM 040254Z 06011KT 10SM FEW008 FEW048 OVC100 07/06 A2987 RMK AO2 RAE52
                 PRESFR SLP117 P0003 60003 T00670056 58036 =
2019-01-03 19:54 METAR KMEM 040154Z 07010KT 9SM -RA FEW065 OVC100 07/06 A2994 RMK AO2 SLP138
                 P0000 T00670056 =
2019-01-03 18:54 METAR KMEM 040054Z 07010KT 10SM -RA FEW050 OVC100 07/05 A2995 RMK AO2 RAB2356
                 SLP141 P0000 T00670050 =
2019-01-03 17:54 METAR KMEM 032354Z 07008KT 10SM FEW049 BKN100 OVC150 07/04 A2998 RMK AO2
                 RAB31E38 SLP153 P0000 60000 T00720044 10078 20067 55011 =
2019-01-03 16:54 METAR KMEM 032254Z 07008KT 10SM BKN050 OVC150 07/04 A2998 RMK AO2 SLP153
                 T00720044 =
2019-01-03 15:54 METAR KMEM 032154Z 05010KT 10SM SCT033 BKN050 OVC150 08/04 A3000 RMK AO2 SLP159
                 T00780044 =
2019-01-03 15:46 METAR KMEM 032146Z 06011KT 10SM SCT033 BKN050 OVC150 07/04 A3000 RMK AO2
                 T00720044 =
2019-01-03 14:54 METAR KMEM 032054Z 05009KT 10SM OVC039 08/04 A3001 RMK AO2 SLP164 T00780044
                 58012 =
2019-01-03 13:54 METAR KMEM 031954Z 04006KT 10SM BKN037 OVC050 08/04 A3003 RMK AO2 SLP170
                 T00780044 =
2019-01-03 13:26 METAR KMEM 031926Z 07005KT 10SM BKN036 OVC050 07/04 A3004 RMK AO2 T00720039 =
2019-01-03 12:54 METAR KMEM 031854Z 12005KT 10SM SCT035 OVC050 07/03 A3005 RMK AO2 SLP176
                 T00670033 =
2019-01-03 11:54 METAR KMEM 031754Z 05004KT 10SM BKN037 OVC050 07/03 A3008 RMK AO2 SLP187
                 T00670033 10067 20039 58013 =
2019-01-03 10:54 METAR KMEM 031654Z 07008KT 10SM OVC037 06/04 A3009 RMK AO2 SLP190 T00610039 =
2019-01-03 10:29 METAR KMEM 031629Z 05008KT 10SM FEW010 BKN037 OVC250 06/03 A3011 RMK AO2
                 T00560033 =
2019-01-03 09:54 METAR KMEM 031554Z 04008KT 10SM SCT039 OVC250 05/03 A3013 RMK AO2 SLP202
                 T00500033 =
2019-01-03 09:48 METAR KMEM 031548Z 05008KT 10SM SCT039 OVC250 05/03 A3012 RMK AO2 =
2019-01-03 08:54 METAR KMEM 031454Z 06006KT 10SM FEW009 BKN037 OVC250 05/03 A3012 RMK AO2 SLP200
                 T00500033 53006 =
2019-01-03 08:32 METAR KMEM 031432Z 04007KT 9SM FEW009 BKN037 OVC250 04/03 A3012 RMK AO2
                 T00440033 =
2019-01-03 07:54 METAR KMEM 031354Z 06006KT 8SM FEW009 SCT040 BKN250 04/03 A3010 RMK AO2 SLP192
                 T00440028 =
2019-01-03 06:54 METAR KMEM 031254Z 06007KT 10SM FEW009 SCT039 BKN250 04/03 A3010 RMK AO2 SLP192
                 T00390028 =
2019-01-03 05:54 METAR KMEM 031154Z 05007KT 8SM FEW008 OVC033 04/03 A3010 RMK AO2 SLP193 60002
                 70067 T00440033 10044 20039 58008 =
2019-01-03 04:54 METAR KMEM 031054Z 03008KT 10SM FEW008 OVC035 04/03 A3011 RMK AO2 SLP196
                 T00440033 =
2019-01-03 04:35 METAR KMEM 031035Z 36008KT 10SM FEW009 SCT014 OVC035 04/03 A3012 RMK AO2
                 T00390033 =
2019-01-03 03:54 METAR KMEM 030954Z 35008KT 6SM BR SCT007 BKN014 OVC035 04/03 A3014 RMK AO2 RAE53
                 SLP206 P0000 T00440033 =
2019-01-03 03:24 METAR KMEM 030924Z 35008KT 6SM -RA BR SCT006 OVC037 04/03 A3012 RMK AO2 P0000
                 T00440033 =
2019-01-03 02:54 METAR KMEM 030854Z 04007KT 6SM -RA BR FEW005 BKN010 OVC038 04/03 A3012 RMK AO2
                 SLP201 P0001 60002 T00440033 58010 =
2019-01-03 01:54 METAR KMEM 030754Z 36005KT 5SM -RA BR BKN005 OVC036 04/04 A3014 RMK AO2 SLP208
                 P0001 T00440039 =
2019-01-03 00:54 METAR KMEM 030654Z 34004KT 6SM -RA BR BKN006 OVC036 04/04 A3014 RMK AO2
                 DZE01RAB01E34B46 SLP207 P0000 T00440039 =
2019-01-03 00:44 METAR KMEM 030644Z 36004KT 6SM BR BKN006 OVC036 04/04 A3013 RMK AO2
                 DZE01RAB01E34 P0000 T00440039 =
2019-01-03 00:28 METAR KMEM 030628Z 34004KT 6SM -RA BR SCT006 OVC037 04/04 A3014 RMK AO2
                 DZE01RAB01 P0000 T00440039 =
2019-01-02 23:54 METAR KMEM 030554Z 34003KT 9SM -DZ OVC006 04/04 A3015 RMK AO2 RAE20DZB48 SLP212
                 P0000 60035 T00440039 10044 20039 400610039 50013 =
2019-01-02 23:49 METAR KMEM 030549Z 33003KT 8SM -DZ BKN005 OVC011 04/04 A3016 RMK AO2 RAE20DZB48
                 P0000 =
2019-01-02 23:32 METAR KMEM 030532Z 30005KT 9SM FEW005 BKN011 OVC035 04/04 A3016 RMK AO2 RAE20
                 P0000 T00440039 =
2019-01-02 22:54 METAR KMEM 030454Z 21003KT 8SM -RA SCT005 OVC033 04/04 A3014 RMK AO2 RAE12B23
                 SLP206 P0001 T00440039 =
2019-01-02 22:45 METAR KMEM 030445Z 20003KT 7SM -RA SCT005 OVC031 04/04 A3013 RMK AO2 RAE12B23
                 P0000 T00440039 =
2019-01-02 22:35 METAR KMEM 030435Z 00000KT 8SM -RA BKN005 OVC031 04/04 A3014 RMK AO2 RAE12B23
                 CIG 004V011 P0000 T00440039 =
2019-01-02 22:19 METAR KMEM 030419Z 00000KT 8SM SCT008 BKN031 OVC100 04/04 A3013 RMK AO2 RAE12
                 P0000 T00440039 =
2019-01-02 22:06 METAR KMEM 030406Z 01004KT 8SM -RA BKN008 OVC100 04/04 A3013 RMK AO2 CIG 004V014
                 P0000 T00390039 =
2019-01-02 21:54 METAR KMEM 030354Z 03005KT 8SM -RA SCT006 BKN075 OVC095 04/04 A3012 RMK AO2
                 SLP199 P0005 T00440039 =
2019-01-02 21:49 METAR KMEM 030349Z 03004KT 8SM -RA SCT006 BKN026 OVC090 04/04 A3012 RMK AO2 CIG
                 020V030 PRESFR P0005 =
2019-01-02 21:43 METAR KMEM 030343Z 04003KT 9SM -RA SCT006 BKN030 OVC095 04/04 A3013 RMK AO2
                 P0005 T00390039 =
2019-01-02 21:35 METAR KMEM 030335Z 00000KT 8SM -RA BKN030 BKN070 OVC095 04/04 A3014 RMK AO2
                 P0004 T00390039 =
2019-01-02 21:19 METAR KMEM 030319Z 00000KT 6SM -RA BR SCT006 OVC029 04/04 A3016 RMK AO2 P0003
                 T00390039 =
2019-01-02 20:54 METAR KMEM 030254Z 22003KT 6SM -RA BR BKN006 OVC028 04/04 A3017 RMK AO2 SLP217
                 P0004 60029 T00390039 53007 =
2019-01-02 20:39 METAR KMEM 030239Z 00000KT 7SM -RA SCT008 BKN028 OVC090 04/04 A3016 RMK AO2
                 P0003 T00390039 =
2019-01-02 20:12 METAR KMEM 030212Z 03006KT 6SM -RA BR BKN006 BKN070 OVC085 04/03 A3013 RMK AO2
                 P0001 T00390033 =
2019-01-02 19:54 METAR KMEM 030154Z 04005KT 6SM -RA BR FEW006 BKN075 OVC090 04/03 A3013 RMK AO2
                 SLP205 P0012 T00390033 =
2019-01-02 19:34 METAR KMEM 030134Z 05006KT 5SM RA BR SCT007 SCT060 OVC080 04/03 A3014 RMK AO2
                 PRESFR P0009 T00390033 =

Support USWX by starting your Amazon purchase here.